Aviation Digital Data Service (ADDS)

Output produced by METARs form (1802 UTC 19 October 2017)
found at http://www.aviationweather.gov/adds/metars/
 
MSLP 191750Z 08007KT 040V120 9999 FEW033 35/24 Q1008 A2979 NOSIG
TAF MSLP 191536Z 1918/2018 20008KT 9999 SCT033 FEW037CB TX34/1918Z TN23/2010Z 
     TEMPO 1923/2003 07009KT 2000 +TSRA SCT023 SCT037CB BKN033 
     FM200300 05004KT 9999 SCT070 
     FM201000 CAVOK
       
MSSS 191750Z 33005KT 9999 FEW027 30/21 Q1014 A2996
TAF MSSS 191536Z 1918/2018 33008KT 9999 SCT033 FEW040CB TX31/1919Z TN22/2011Z 
     TEMPO 1923/2003 36010KT 5000 TSRA BKN023 SCT037CB 
     FM200300 36007KT 9999 FEW017 
     FM200800 CAVOK